Time;durP1;ratioP1;P1;durP2;ratioP2;P2;SDS_P1;SDS_P2;PMS_P1;PMS_P2;Temp;Humidity;BMP_temperature;BMP_pressure;BME280_temperature;BME280_humidity;BME280_pressure;Samples;Min_cycle;Max_cycle;Signal;HPM_P1;HPM_P2
2022/01/17 00:01:53;;;;;;;;;;;0.60;99.90;;;;;;5077385;28;20645;-51
2022/01/17 00:04:21;;;;;;;;;;;0.60;99.90;;;;;;5080371;28;19924;-50
2022/01/17 00:06:48;;;;;;;;;;;0.60;99.90;;;;;;5079956;28;19928;-51
2022/01/17 00:09:15;;;;;;;;;;;0.60;99.90;;;;;;5071145;28;19928;-50
2022/01/17 00:11:45;;;;;;;;;;;0.60;99.90;;;;;;5069471;28;20000;-51
2022/01/17 00:14:16;;;;;;;;;;;0.60;99.90;;;;;;5079694;28;19947;-48
2022/01/17 00:16:48;;;;;;;;;;;0.70;99.90;;;;;;5071584;28;20359;-48
2022/01/17 00:19:37;;;;;;;;;;;0.60;99.90;;;;;;5073804;28;19939;-48
2022/01/17 00:22:05;;;;;;;;;;;0.70;99.90;;;;;;5076208;28;19950;-48
2022/01/17 00:24:32;;;;;;;;;;;0.70;99.90;;;;;;5079510;28;19978;-49
2022/01/17 00:26:59;;;;;;;;;;;0.70;99.90;;;;;;5075183;28;19950;-48
2022/01/17 00:29:26;;;;;;;;;;;0.70;99.90;;;;;;5073948;28;19986;-48
2022/01/17 00:31:53;;;;;;;;;;;0.70;99.90;;;;;;5069427;28;20394;-49
2022/01/17 00:34:19;;;;;;;;;;;0.60;99.90;;;;;;5077301;28;20390;-48
2022/01/17 00:36:46;;;;;;;;;;;0.60;99.90;;;;;;5081161;28;19978;-48
2022/01/17 00:39:14;;;;;;;;;;;0.60;99.90;;;;;;5072912;28;19970;-48
2022/01/17 00:41:41;;;;;;;;;;;0.70;99.90;;;;;;5080130;28;19966;-48
2022/01/17 00:44:08;;;;;;;;;;;0.70;99.90;;;;;;5071127;28;19952;-47
2022/01/17 00:46:35;;;;;;;;;;;0.70;99.90;;;;;;5079559;28;19924;-48
2022/01/17 00:49:01;;;;;;;;;;;0.70;99.90;;;;;;5070424;28;19991;-48
2022/01/17 00:51:28;;;;;;;;;;;0.70;99.90;;;;;;5071487;28;19936;-48
2022/01/17 00:53:55;;;;;;;;;;;0.70;99.90;;;;;;5073490;28;20359;-48
2022/01/17 00:56:23;;;;;;;;;;;0.70;99.90;;;;;;5074188;28;19924;-48
2022/01/17 00:58:51;;;;;;;;;;;0.80;99.90;;;;;;5074416;28;19977;-50
2022/01/17 01:01:18;;;;;;;;;;;0.80;99.90;;;;;;5071736;28;19928;-51
2022/01/17 01:03:45;;;;;;;;;;;1.00;99.90;;;;;;5074002;28;19928;-49
2022/01/17 01:06:12;;;;;;;;;;;1.10;99.90;;;;;;5083483;28;20298;-51
2022/01/17 01:08:39;;;;;;;;;;;1.10;99.90;;;;;;5088095;28;19936;-49
2022/01/17 01:11:05;;;;;;;;;;;1.10;99.90;;;;;;5080606;28;20002;-50
2022/01/17 01:13:34;;;;;;;;;;;1.00;99.90;;;;;;5080602;28;19924;-50
2022/01/17 01:16:23;;;;;;;;;;;0.90;99.90;;;;;;5077900;28;19928;-50
2022/01/17 01:21:46;;;;;;;;;;;1.00;99.90;;;;;;5083852;28;20023;-50
2022/01/17 01:29:48;;;;;;;;;;;1.00;99.90;;;;;;5079153;28;19926;-51
2022/01/17 01:32:19;;;;;;;;;;;1.00;99.90;;;;;;5080778;28;19925;-50
2022/01/17 01:34:50;;;;;;;;;;;0.90;99.90;;;;;;5082928;28;20003;-50
2022/01/17 01:37:16;;;;;;;;;;;0.90;99.90;;;;;;5077899;28;20373;-51
2022/01/17 01:39:43;;;;;;;;;;;0.90;99.90;;;;;;5078015;28;20348;-51
2022/01/17 01:42:14;;;;;;;;;;;0.80;99.90;;;;;;5078340;28;19986;-51
2022/01/17 01:44:42;;;;;;;;;;;0.70;99.90;;;;;;5080319;28;19935;-51
2022/01/17 01:47:09;;;;;;;;;;;0.60;99.90;;;;;;5077060;28;19925;-50
2022/01/17 01:49:36;;;;;;;;;;;0.70;99.90;;;;;;5078224;28;19925;-51
2022/01/17 01:52:03;;;;;;;;;;;0.70;99.90;;;;;;5082070;28;19985;-50
2022/01/17 01:54:30;;;;;;;;;;;0.80;99.90;;;;;;5082270;28;19932;-51
2022/01/17 01:56:57;;;;;;;;;;;0.80;99.90;;;;;;5077261;28;19928;-51
2022/01/17 01:59:24;;;;;;;;;;;0.80;99.90;;;;;;5075764;28;19924;-50
2022/01/17 02:01:53;;;;;;;;;;;0.80;99.90;;;;;;5068503;28;19956;-50
2022/01/17 02:04:19;;;;;;;;;;;0.70;99.90;;;;;;5076440;28;19928;-51
2022/01/17 02:06:46;;;;;;;;;;;0.70;99.90;;;;;;5083303;28;19932;-51
2022/01/17 02:09:13;;;;;;;;;;;0.70;99.90;;;;;;5073456;28;19924;-51
2022/01/17 02:11:40;;;;;;;;;;;0.60;99.90;;;;;;5075387;28;19981;-51
2022/01/17 02:14:07;;;;;;;;;;;0.60;99.90;;;;;;5081864;28;19925;-51
2022/01/17 02:16:34;;;;;;;;;;;0.60;99.90;;;;;;5073125;28;20291;-51
2022/01/17 02:19:02;;;;;;;;;;;0.60;99.90;;;;;;5072783;28;20386;-51
2022/01/17 02:21:44;;;;;;;;;;;0.60;99.90;;;;;;5073604;28;19924;-51
2022/01/17 02:24:11;;;;;;;;;;;0.80;99.90;;;;;;5078968;28;19924;-51
2022/01/17 02:26:37;;;;;;;;;;;0.90;99.90;;;;;;5080190;28;19993;-50
2022/01/17 02:29:05;;;;;;;;;;;0.90;99.90;;;;;;5097925;22;19928;-53
2022/01/17 02:31:32;;;;;;;;;;;0.90;99.90;;;;;;5069315;28;19924;-52
2022/01/17 02:34:01;;;;;;;;;;;0.90;99.90;;;;;;5065409;28;20351;-52
2022/01/17 02:36:28;;;;;;;;;;;0.90;99.90;;;;;;5074530;28;19925;-53
2022/01/17 02:38:56;;;;;;;;;;;0.80;99.90;;;;;;5073450;28;19925;-52
2022/01/17 02:41:23;;;;;;;;;;;0.80;99.90;;;;;;5054451;28;19932;-52
2022/01/17 02:43:49;;;;;;;;;;;0.90;99.90;;;;;;5062216;28;19929;-52
2022/01/17 02:46:25;;;;;;;;;;;0.90;99.90;;;;;;5058853;28;19970;-52
2022/01/17 02:48:53;;;;;;;;;;;0.90;99.90;;;;;;5057128;28;19924;-52
2022/01/17 02:51:19;;;;;;;;;;;0.90;99.90;;;;;;5060438;28;19985;-52
2022/01/17 02:53:46;;;;;;;;;;;0.90;99.90;;;;;;5061497;28;20399;-52
2022/01/17 02:56:14;;;;;;;;;;;1.00;99.90;;;;;;5054489;28;19925;-52
2022/01/17 02:58:42;;;;;;;;;;;1.10;99.90;;;;;;5063619;28;19978;-52
2022/01/17 03:01:10;;;;;;;;;;;1.30;99.90;;;;;;5060354;28;19925;-52
2022/01/17 03:03:37;;;;;;;;;;;1.30;99.90;;;;;;5059357;28;19929;-52
2022/01/17 03:06:04;;;;;;;;;;;1.30;99.90;;;;;;5061324;28;19924;-52
2022/01/17 03:08:32;;;;;;;;;;;1.30;99.90;;;;;;5056467;28;19925;-52
2022/01/17 03:11:00;;;;;;;;;;;1.20;99.90;;;;;;5049972;28;19994;-52
2022/01/17 03:13:32;;;;;;;;;;;1.20;99.90;;;;;;5057438;28;19925;-52
2022/01/17 03:16:01;;;;;;;;;;;1.10;99.90;;;;;;5059941;28;19925;-52
2022/01/17 03:18:29;;;;;;;;;;;1.20;99.90;;;;;;5059536;28;19928;-52
2022/01/17 03:20:56;;;;;;;;;;;1.10;99.90;;;;;;5052824;28;19925;-53
2022/01/17 03:23:23;;;;;;;;;;;1.10;99.90;;;;;;5060603;28;19970;-52
2022/01/17 03:25:49;;;;;;;;;;;0.90;99.90;;;;;;5061184;28;19970;-52
2022/01/17 03:28:16;;;;;;;;;;;0.90;99.90;;;;;;5061070;28;19925;-52
2022/01/17 03:30:45;;;;;;;;;;;1.00;99.90;;;;;;5059850;28;19929;-51
2022/01/17 03:33:12;;;;;;;;;;;1.00;99.90;;;;;;5052042;28;20383;-52
2022/01/17 03:35:40;;;;;;;;;;;0.90;99.90;;;;;;5052073;28;19925;-52
2022/01/17 03:38:07;;;;;;;;;;;0.90;99.90;;;;;;5054036;28;20038;-52
2022/01/17 03:40:34;;;;;;;;;;;0.80;99.90;;;;;;5042886;28;19925;-52
2022/01/17 03:43:00;;;;;;;;;;;0.70;99.90;;;;;;5057955;28;20386;-52
2022/01/17 03:45:27;;;;;;;;;;;0.70;99.90;;;;;;5059490;28;19924;-52
2022/01/17 03:47:55;;;;;;;;;;;0.70;99.90;;;;;;5061948;28;19951;-52
2022/01/17 03:50:23;;;;;;;;;;;0.70;99.90;;;;;;5061302;28;19978;-53
2022/01/17 03:52:50;;;;;;;;;;;0.90;99.90;;;;;;5071227;28;19925;-52
2022/01/17 03:55:18;;;;;;;;;;;0.90;99.90;;;;;;5068486;28;19970;-52
2022/01/17 03:57:45;;;;;;;;;;;0.90;99.90;;;;;;5069165;28;20038;-52
2022/01/17 04:00:13;;;;;;;;;;;0.80;99.90;;;;;;5063720;28;19929;-52
2022/01/17 04:02:40;;;;;;;;;;;0.80;99.90;;;;;;5055124;28;19925;-52
2022/01/17 04:05:09;;;;;;;;;;;0.80;99.90;;;;;;5057571;28;19925;-52
2022/01/17 04:07:36;;;;;;;;;;;0.80;99.90;;;;;;5061070;28;19925;-52
2022/01/17 04:10:03;;;;;;;;;;;0.80;99.90;;;;;;5056352;28;19924;-52
2022/01/17 04:12:30;;;;;;;;;;;0.90;99.90;;;;;;5052359;28;19925;-52
2022/01/17 04:14:57;;;;;;;;;;;1.00;99.90;;;;;;5054757;28;19925;-52
2022/01/17 04:17:27;;;;;;;;;;;1.10;99.90;;;;;;5060163;28;19929;-52
2022/01/17 04:20:02;;;;;;;;;;;1.20;99.90;;;;;;5051559;28;19924;-52
2022/01/17 04:22:33;;;;;;;;;;;1.10;99.90;;;;;;5053250;28;20027;-52
2022/01/17 04:25:00;;;;;;;;;;;1.10;99.90;;;;;;5058905;28;20024;-52
2022/01/17 04:27:27;;;;;;;;;;;1.20;99.90;;;;;;5063434;28;19970;-52
2022/01/17 04:29:53;;;;;;;;;;;1.20;99.90;;;;;;5055371;28;19978;-52
2022/01/17 04:32:20;;;;;;;;;;;1.00;99.90;;;;;;5047055;28;19925;-53
2022/01/17 04:34:47;;;;;;;;;;;1.00;99.90;;;;;;5059867;28;19925;-52
2022/01/17 04:37:13;;;;;;;;;;;0.90;99.90;;;;;;5062969;28;19971;-52
2022/01/17 04:39:42;;;;;;;;;;;0.80;99.90;;;;;;5066237;28;19978;-52
2022/01/17 04:42:12;;;;;;;;;;;0.80;99.90;;;;;;5057025;28;19978;-52
2022/01/17 04:47:24;;;;;;;;;;;0.70;99.90;;;;;;5066548;28;20025;-52
2022/01/17 04:49:50;;;;;;;;;;;0.70;99.90;;;;;;5047513;28;21263;-52
2022/01/17 04:52:17;;;;;;;;;;;0.60;99.90;;;;;;5041883;28;19994;-52
2022/01/17 04:54:52;;;;;;;;;;;0.70;99.90;;;;;;5043411;28;20360;-52
2022/01/17 04:57:19;;;;;;;;;;;0.50;99.90;;;;;;5039306;28;19929;-52
2022/01/17 04:59:45;;;;;;;;;;;0.60;99.90;;;;;;5043982;28;19929;-52
2022/01/17 05:02:12;;;;;;;;;;;0.50;99.90;;;;;;5040720;28;19976;-52
2022/01/17 05:04:39;;;;;;;;;;;0.50;99.90;;;;;;5047527;28;19925;-52
2022/01/17 05:07:06;;;;;;;;;;;0.50;99.90;;;;;;5044461;28;19931;-52
2022/01/17 05:09:33;;;;;;;;;;;0.50;99.90;;;;;;5041299;28;19925;-52
2022/01/17 05:12:01;;;;;;;;;;;0.50;99.90;;;;;;5046222;28;19939;-52
2022/01/17 05:14:28;;;;;;;;;;;0.50;99.90;;;;;;5048545;28;20272;-52
2022/01/17 05:17:02;;;;;;;;;;;0.60;99.90;;;;;;5048584;28;19929;-52
2022/01/17 05:22:13;;;;;;;;;;;0.70;99.90;;;;;;5041549;28;20294;-52
2022/01/17 05:24:40;;;;;;;;;;;0.70;99.90;;;;;;5041644;28;19933;-52
2022/01/17 05:27:08;;;;;;;;;;;0.70;99.90;;;;;;5043335;28;19929;-52
2022/01/17 05:29:34;;;;;;;;;;;0.80;99.90;;;;;;5042436;28;19937;-52
2022/01/17 05:32:01;;;;;;;;;;;0.80;99.90;;;;;;5055708;28;20360;-53
2022/01/17 05:34:28;;;;;;;;;;;0.80;99.90;;;;;;5041604;28;20004;-52
2022/01/17 05:36:55;;;;;;;;;;;0.80;99.90;;;;;;5041125;28;19987;-53
2022/01/17 05:39:22;;;;;;;;;;;0.70;99.90;;;;;;5050540;28;19929;-52
2022/01/17 05:41:48;;;;;;;;;;;0.80;99.90;;;;;;5059921;28;19971;-52
2022/01/17 05:44:17;;;;;;;;;;;0.80;99.90;;;;;;5051221;28;19973;-51
2022/01/17 05:46:43;;;;;;;;;;;0.80;99.90;;;;;;5049717;28;19932;-52
2022/01/17 05:49:10;;;;;;;;;;;0.80;99.90;;;;;;5050567;28;19924;-52
2022/01/17 05:51:37;;;;;;;;;;;0.70;99.90;;;;;;5053377;28;19931;-51
2022/01/17 05:54:04;;;;;;;;;;;0.70;99.90;;;;;;5060493;28;20349;-51
2022/01/17 05:56:31;;;;;;;;;;;0.70;99.90;;;;;;5062583;28;19940;-52
2022/01/17 05:58:57;;;;;;;;;;;0.70;99.90;;;;;;5064429;28;19924;-52
2022/01/17 06:01:26;;;;;;;;;;;0.80;99.90;;;;;;5054056;28;19983;-51
2022/01/17 06:03:52;;;;;;;;;;;0.70;99.90;;;;;;5062362;28;19971;-51
2022/01/17 06:06:19;;;;;;;;;;;0.70;99.90;;;;;;5072558;28;19924;-51
2022/01/17 06:08:46;;;;;;;;;;;0.70;99.90;;;;;;5054235;28;19987;-51
2022/01/17 06:11:13;;;;;;;;;;;0.60;99.90;;;;;;5054362;28;20377;-52
2022/01/17 06:13:39;;;;;;;;;;;0.70;99.90;;;;;;5054845;28;20385;-51
2022/01/17 06:16:06;;;;;;;;;;;0.70;99.90;;;;;;5074637;28;19924;-51
2022/01/17 06:18:34;;;;;;;;;;;0.70;99.90;;;;;;5058181;28;20352;-52
2022/01/17 06:21:01;;;;;;;;;;;0.60;99.90;;;;;;5069633;28;19924;-52
2022/01/17 06:23:28;;;;;;;;;;;0.60;99.90;;;;;;5055090;28;19925;-51
2022/01/17 06:25:55;;;;;;;;;;;0.60;99.90;;;;;;5054545;28;19977;-52
2022/01/17 06:28:21;;;;;;;;;;;0.60;99.90;;;;;;5054327;28;19933;-51
2022/01/17 06:30:49;;;;;;;;;;;0.50;99.90;;;;;;5054228;28;19925;-52
2022/01/17 06:33:16;;;;;;;;;;;0.50;99.90;;;;;;5054577;28;20444;-51
2022/01/17 06:35:45;;;;;;;;;;;0.50;99.90;;;;;;5054495;28;19924;-51
2022/01/17 06:38:11;;;;;;;;;;;0.50;99.90;;;;;;5054368;28;20048;-51
2022/01/17 06:40:38;;;;;;;;;;;0.60;99.90;;;;;;5054671;28;20298;-51
2022/01/17 06:43:08;;;;;;;;;;;0.60;99.90;;;;;;5054682;28;20287;-51
2022/01/17 06:45:35;;;;;;;;;;;0.70;99.90;;;;;;5054726;28;19925;-51
2022/01/17 06:48:02;;;;;;;;;;;0.80;99.90;;;;;;5054087;28;20306;-51
2022/01/17 06:50:29;;;;;;;;;;;0.80;99.90;;;;;;5054651;28;19931;-50
2022/01/17 06:53:00;;;;;;;;;;;0.80;99.90;;;;;;5053968;28;19979;-51
2022/01/17 06:55:27;;;;;;;;;;;0.90;99.90;;;;;;5054395;28;20048;-51
2022/01/17 06:57:54;;;;;;;;;;;0.90;99.90;;;;;;5053834;28;19971;-52
2022/01/17 07:00:20;;;;;;;;;;;0.90;99.90;;;;;;5049154;28;19925;-51
2022/01/17 07:02:47;;;;;;;;;;;1.00;99.90;;;;;;5063685;28;19970;-52
2022/01/17 07:05:14;;;;;;;;;;;1.00;99.90;;;;;;5053654;28;19929;-52
2022/01/17 07:07:41;;;;;;;;;;;1.10;99.90;;;;;;5054077;28;19970;-52
2022/01/17 07:10:10;;;;;;;;;;;1.20;99.90;;;;;;5052558;28;19924;-52
2022/01/17 07:12:37;;;;;;;;;;;1.20;99.90;;;;;;5053993;28;20282;-51
2022/01/17 07:15:04;;;;;;;;;;;1.20;99.90;;;;;;5052653;28;20014;-51
2022/01/17 07:17:31;;;;;;;;;;;1.30;99.90;;;;;;5044721;28;19994;-51
2022/01/17 07:19:58;;;;;;;;;;;1.40;99.90;;;;;;5053522;28;19925;-52
2022/01/17 07:22:27;;;;;;;;;;;1.60;99.90;;;;;;5053433;28;19931;-51
2022/01/17 07:24:54;;;;;;;;;;;1.60;99.90;;;;;;5054443;28;19931;-51
2022/01/17 07:27:24;;;;;;;;;;;1.50;99.90;;;;;;5066018;28;19940;-51
2022/01/17 07:29:50;;;;;;;;;;;1.60;99.90;;;;;;5052884;28;19924;-50
2022/01/17 07:32:17;;;;;;;;;;;1.60;99.90;;;;;;5053852;28;20345;-51
2022/01/17 07:34:44;;;;;;;;;;;1.50;99.90;;;;;;5053510;28;19928;-51
2022/01/17 07:37:11;;;;;;;;;;;1.50;99.90;;;;;;5053284;28;19936;-52
2022/01/17 07:39:39;;;;;;;;;;;1.50;99.90;;;;;;5051083;28;20316;-51
2022/01/17 07:42:07;;;;;;;;;;;1.40;99.90;;;;;;5056164;28;20011;-51
2022/01/17 07:44:35;;;;;;;;;;;1.40;99.90;;;;;;5063568;28;19929;-51
2022/01/17 07:47:02;;;;;;;;;;;1.50;99.90;;;;;;5060260;28;19978;-52
2022/01/17 07:49:29;;;;;;;;;;;1.60;99.90;;;;;;5055073;28;19925;-51
2022/01/17 07:51:59;;;;;;;;;;;1.50;99.90;;;;;;5053602;28;19925;-51
2022/01/17 07:54:26;;;;;;;;;;;1.60;99.90;;;;;;5051774;28;19928;-51
2022/01/17 07:56:53;;;;;;;;;;;1.70;99.90;;;;;;5050562;28;19924;-52
2022/01/17 07:59:20;;;;;;;;;;;1.70;99.90;;;;;;5050784;28;20444;-51
2022/01/17 08:01:48;;;;;;;;;;;1.80;99.90;;;;;;5054303;28;19933;-51
2022/01/17 08:04:15;;;;;;;;;;;1.70;99.90;;;;;;5052791;28;19929;-51
2022/01/17 08:06:42;;;;;;;;;;;1.80;99.90;;;;;;5050586;28;20028;-51
2022/01/17 08:09:10;;;;;;;;;;;1.80;99.90;;;;;;5052726;28;19931;-53
2022/01/17 08:11:37;;;;;;;;;;;1.80;99.90;;;;;;5052976;28;19924;-53
2022/01/17 08:14:03;;;;;;;;;;;1.90;99.90;;;;;;5052315;28;19933;-51
2022/01/17 08:16:30;;;;;;;;;;;1.80;99.90;;;;;;5052557;28;20002;-51
2022/01/17 08:18:58;;;;;;;;;;;1.90;99.90;;;;;;5052746;28;20272;-50
2022/01/17 08:21:25;;;;;;;;;;;1.90;99.90;;;;;;5053036;28;19932;-51
2022/01/17 08:23:53;;;;;;;;;;;2.00;99.90;;;;;;5052837;28;19978;-51
2022/01/17 08:26:20;;;;;;;;;;;1.90;99.90;;;;;;5052257;28;19947;-52
2022/01/17 08:28:47;;;;;;;;;;;1.80;99.90;;;;;;5051740;28;19971;-52
2022/01/17 08:31:14;;;;;;;;;;;1.90;99.90;;;;;;5052497;28;19929;-52
2022/01/17 08:33:40;;;;;;;;;;;2.00;99.90;;;;;;5052815;28;19979;-51
2022/01/17 08:36:11;;;;;;;;;;;2.10;99.90;;;;;;5052241;28;19978;-51
2022/01/17 08:38:39;;;;;;;;;;;2.10;99.90;;;;;;5054978;28;20624;-52
2022/01/17 08:41:05;;;;;;;;;;;2.10;99.90;;;;;;5050598;28;19978;-51
2022/01/17 08:43:32;;;;;;;;;;;2.20;99.90;;;;;;5071908;22;19929;-48
2022/01/17 08:45:59;;;;;;;;;;;2.10;99.90;;;;;;5050835;28;19990;-49
2022/01/17 08:48:26;;;;;;;;;;;2.20;99.90;;;;;;5051432;28;20002;-49
2022/01/17 08:50:53;;;;;;;;;;;2.30;99.90;;;;;;5051520;28;19925;-49
2022/01/17 08:53:21;;;;;;;;;;;2.40;99.90;;;;;;5051368;28;19925;-49
2022/01/17 08:55:48;;;;;;;;;;;2.40;99.90;;;;;;5039240;28;20452;-50
2022/01/17 08:58:16;;;;;;;;;;;2.40;99.90;;;;;;5034885;28;19945;-49
2022/01/17 09:00:44;;;;;;;;;;;2.40;99.90;;;;;;5031183;28;19972;-50
2022/01/17 09:03:10;;;;;;;;;;;2.60;99.90;;;;;;5031309;28;19929;-48
2022/01/17 09:05:37;;;;;;;;;;;2.70;99.90;;;;;;5031323;28;20016;-49
2022/01/17 09:08:08;;;;;;;;;;;2.80;99.90;;;;;;5050100;28;19978;-50
2022/01/17 09:10:37;;;;;;;;;;;2.70;99.90;;;;;;5051206;28;20397;-50
2022/01/17 09:13:07;;;;;;;;;;;2.70;99.90;;;;;;5050855;28;19925;-49
2022/01/17 09:15:35;;;;;;;;;;;2.70;99.90;;;;;;5051074;28;20023;-48
2022/01/17 09:18:02;;;;;;;;;;;2.90;99.90;;;;;;5044894;28;19972;-51
2022/01/17 09:20:30;;;;;;;;;;;3.10;99.90;;;;;;5051222;28;19932;-50
2022/01/17 09:22:56;;;;;;;;;;;3.30;99.90;;;;;;5031640;28;19931;-50
2022/01/17 09:25:23;;;;;;;;;;;3.40;99.90;;;;;;5031580;28;19933;-49
2022/01/17 09:27:51;;;;;;;;;;;3.50;99.90;;;;;;5051474;28;20637;-50
2022/01/17 09:30:18;;;;;;;;;;;3.60;99.90;;;;;;5053920;28;19925;-50
2022/01/17 09:32:46;;;;;;;;;;;3.60;99.90;;;;;;5034763;28;20376;-49
2022/01/17 09:35:13;;;;;;;;;;;3.40;99.90;;;;;;5035012;28;20031;-50
2022/01/17 09:37:40;;;;;;;;;;;3.30;99.90;;;;;;5049294;28;19925;-50
2022/01/17 09:40:08;;;;;;;;;;;3.20;99.90;;;;;;5033989;28;20322;-50
2022/01/17 09:42:36;;;;;;;;;;;3.40;99.90;;;;;;5034046;28;20349;-48
2022/01/17 09:45:05;;;;;;;;;;;3.50;99.90;;;;;;5034513;28;19925;-51
2022/01/17 09:47:34;;;;;;;;;;;3.70;99.90;;;;;;5035123;28;20369;-50
2022/01/17 09:50:01;;;;;;;;;;;4.00;99.90;;;;;;5034514;28;19925;-50
2022/01/17 09:52:35;;;;;;;;;;;4.10;99.90;;;;;;5025604;28;19932;-49
2022/01/17 09:55:08;;;;;;;;;;;4.20;99.90;;;;;;5027301;28;19991;-50
2022/01/17 09:57:39;;;;;;;;;;;4.20;99.90;;;;;;5034172;28;19987;-50
2022/01/17 10:00:08;;;;;;;;;;;4.30;99.90;;;;;;5031004;28;20457;-50
2022/01/17 10:02:35;;;;;;;;;;;4.20;99.90;;;;;;5033846;28;20418;-50
2022/01/17 10:05:06;;;;;;;;;;;4.20;99.90;;;;;;5033611;28;20015;-49
2022/01/17 10:07:52;;;;;;;;;;;3.80;99.90;;;;;;5034617;28;19929;-50
2022/01/17 10:10:33;;;;;;;;;;;3.80;99.90;;;;;;5034270;28;19951;-50
2022/01/17 10:13:04;;;;;;;;;;;3.80;99.90;;;;;;5034321;28;19929;-48
2022/01/17 10:15:44;;;;;;;;;;;4.10;99.90;;;;;;5034072;28;20390;-50
2022/01/17 10:18:23;;;;;;;;;;;4.20;99.90;;;;;;5051052;28;19929;-50
2022/01/17 10:20:54;;;;;;;;;;;4.30;99.90;;;;;;5053969;28;20287;-49
2022/01/17 10:23:39;;;;;;;;;;;4.00;99.90;;;;;;5034088;28;19965;-50
2022/01/17 10:26:11;;;;;;;;;;;4.10;99.90;;;;;;5034300;28;19941;-49
2022/01/17 10:28:59;;;;;;;;;;;4.40;99.90;;;;;;5014179;28;19998;-50
2022/01/17 10:36:57;;;;;;;;;;;4.40;99.90;;;;;;5026811;28;19939;-51
2022/01/17 10:39:24;;;;;;;;;;;4.30;99.90;;;;;;5053052;28;19990;-50
2022/01/17 10:41:51;;;;;;;;;;;4.00;99.90;;;;;;5053510;28;19988;-50
2022/01/17 10:44:32;;;;;;;;;;;4.10;99.90;;;;;;5053523;28;19925;-50
2022/01/17 10:47:14;;;;;;;;;;;4.30;99.90;;;;;;5046580;28;19973;-49
2022/01/17 10:49:49;;;;;;;;;;;4.50;99.90;;;;;;5032183;28;19988;-49
2022/01/17 10:52:27;;;;;;;;;;;4.60;99.90;;;;;;5033072;28;19925;-50
2022/01/17 10:54:55;;;;;;;;;;;4.60;99.90;;;;;;5033080;28;20020;-50
2022/01/17 10:57:23;;;;;;;;;;;4.90;99.90;;;;;;5033067;28;19925;-51
2022/01/17 10:59:51;;;;;;;;;;;5.20;99.90;;;;;;5033751;28;19925;-51
2022/01/17 11:02:18;;;;;;;;;;;5.40;99.90;;;;;;5034572;28;19929;-50
2022/01/17 11:04:49;;;;;;;;;;;5.40;99.90;;;;;;5032365;28;19959;-50
2022/01/17 11:07:17;;;;;;;;;;;5.50;99.90;;;;;;5017947;28;20440;-51
2022/01/17 11:09:45;;;;;;;;;;;5.50;99.90;;;;;;5032529;28;19982;-52
2022/01/17 11:12:12;;;;;;;;;;;5.70;99.90;;;;;;5035060;28;19929;-51
2022/01/17 11:14:40;;;;;;;;;;;5.80;99.90;;;;;;5033859;28;19972;-51
2022/01/17 11:17:10;;;;;;;;;;;5.90;99.90;;;;;;5032936;28;19979;-51
2022/01/17 11:22:23;;;;;;;;;;;5.80;99.90;;;;;;5052654;28;19931;-52
2022/01/17 11:24:49;;;;;;;;;;;5.90;99.90;;;;;;5034151;28;19971;-52
2022/01/17 11:27:16;;;;;;;;;;;6.20;99.90;;;;;;5033122;28;19979;-52
2022/01/17 11:29:43;;;;;;;;;;;6.30;99.90;;;;;;5032484;28;20433;-50
2022/01/17 11:32:10;;;;;;;;;;;6.40;99.90;;;;;;5050416;28;20322;-52
2022/01/17 11:34:37;;;;;;;;;;;6.40;99.90;;;;;;5035501;28;20387;-52
2022/01/17 11:37:04;;;;;;;;;;;6.40;99.90;;;;;;5036883;28;20418;-53
2022/01/17 11:39:32;;;;;;;;;;;6.40;99.90;;;;;;5032700;28;19932;-51
2022/01/17 11:41:59;;;;;;;;;;;6.40;99.90;;;;;;5048131;28;19929;-51
2022/01/17 11:44:33;;;;;;;;;;;6.30;99.90;;;;;;5052884;28;19982;-50
2022/01/17 11:47:00;;;;;;;;;;;6.10;99.90;;;;;;5052725;28;19924;-52
2022/01/17 11:49:28;;;;;;;;;;;6.10;99.90;;;;;;5052126;28;19925;-51
2022/01/17 11:51:56;;;;;;;;;;;6.20;99.90;;;;;;5036610;28;19925;-50
2022/01/17 11:54:24;;;;;;;;;;;6.20;99.90;;;;;;5032491;28;19988;-51
2022/01/17 11:56:53;;;;;;;;;;;6.30;99.90;;;;;;5032714;28;20019;-51
2022/01/17 11:59:38;;;;;;;;;;;6.20;99.90;;;;;;5032263;28;19971;-52
2022/01/17 12:02:21;;;;;;;;;;;6.30;99.90;;;;;;5041180;28;20362;-50
2022/01/17 12:05:06;;;;;;;;;;;6.50;99.90;;;;;;5052154;28;19979;-51
2022/01/17 12:07:36;;;;;;;;;;;6.50;99.90;;;;;;5052055;28;19928;-52
2022/01/17 12:10:07;;;;;;;;;;;6.70;99.90;;;;;;5051668;28;19971;-52
2022/01/17 12:12:35;;;;;;;;;;;7.10;99.90;;;;;;5032049;28;19929;-49
2022/01/17 12:15:06;;;;;;;;;;;7.30;99.90;;;;;;5032134;28;19925;-49
2022/01/17 12:17:35;;;;;;;;;;;7.40;99.90;;;;;;5031985;28;19929;-52
2022/01/17 12:20:19;;;;;;;;;;;7.60;99.90;;;;;;5030517;28;19932;-51
2022/01/17 12:22:50;;;;;;;;;;;7.40;99.90;;;;;;5023702;28;19925;-50
2022/01/17 12:25:35;;;;;;;;;;;7.10;99.90;;;;;;5012161;28;20366;-52
2022/01/17 12:28:20;;;;;;;;;;;7.30;99.90;;;;;;5011997;28;19940;-51
2022/01/17 12:30:50;;;;;;;;;;;7.40;99.90;;;;;;5044794;28;20398;-53
2022/01/17 12:33:29;;;;;;;;;;;7.40;99.90;;;;;;5031049;28;19925;-51
2022/01/17 12:35:57;;;;;;;;;;;7.40;99.90;;;;;;5031625;28;19925;-51
2022/01/17 12:38:30;;;;;;;;;;;7.20;99.90;;;;;;5030667;28;19955;-51
2022/01/17 12:40:57;;;;;;;;;;;7.00;99.90;;;;;;5032373;28;19999;-51
2022/01/17 12:43:27;;;;;;;;;;;6.90;99.90;;;;;;5029754;28;20413;-52
2022/01/17 12:45:59;;;;;;;;;;;7.10;99.90;;;;;;5031798;28;19929;-51
2022/01/17 12:48:26;;;;;;;;;;;7.30;99.90;;;;;;5030709;28;19929;-52
2022/01/17 12:50:54;;;;;;;;;;;7.20;99.90;;;;;;5031735;28;19932;-51
2022/01/17 12:53:21;;;;;;;;;;;7.20;99.90;;;;;;5029806;28;20456;-51
2022/01/17 12:55:49;;;;;;;;;;;7.40;99.90;;;;;;5031478;28;20021;-51
2022/01/17 12:58:18;;;;;;;;;;;7.20;99.90;;;;;;5023454;28;20000;-51
2022/01/17 13:00:49;;;;;;;;;;;7.20;99.90;;;;;;5011039;28;19925;-50
2022/01/17 13:03:19;;;;;;;;;;;7.20;99.90;;;;;;5019555;28;20020;-52
2022/01/17 13:05:46;;;;;;;;;;;7.00;99.90;;;;;;5039555;28;19925;-50
2022/01/17 13:08:13;;;;;;;;;;;7.20;99.90;;;;;;5051059;28;20391;-53
2022/01/17 13:10:39;;;;;;;;;;;7.10;99.90;;;;;;5051543;28;20354;-51
2022/01/17 13:13:07;;;;;;;;;;;7.00;99.90;;;;;;5051311;28;19987;-50
2022/01/17 13:15:34;;;;;;;;;;;6.80;99.90;;;;;;5042075;28;20501;-50
2022/01/17 13:18:00;;;;;;;;;;;6.70;99.90;;;;;;5031149;28;19925;-52
2022/01/17 13:20:29;;;;;;;;;;;7.00;99.90;;;;;;5031109;28;19929;-51
2022/01/17 13:23:00;;;;;;;;;;;6.90;99.90;;;;;;5029739;28;19925;-51
2022/01/17 13:25:27;;;;;;;;;;;6.90;99.90;;;;;;5031319;28;19925;-51
2022/01/17 13:27:55;;;;;;;;;;;7.10;99.90;;;;;;5031209;28;19926;-51
2022/01/17 13:30:22;;;;;;;;;;;7.10;99.90;;;;;;5031231;28;19929;-50
2022/01/17 13:32:49;;;;;;;;;;;7.10;99.90;;;;;;5030627;28;19929;-51
2022/01/17 13:35:21;;;;;;;;;;;6.90;99.90;;;;;;5031428;28;19931;-52
2022/01/17 13:37:50;;;;;;;;;;;6.90;99.90;;;;;;5030832;28;19937;-51
2022/01/17 13:40:18;;;;;;;;;;;6.90;99.90;;;;;;5031092;28;20032;-52
2022/01/17 13:42:46;;;;;;;;;;;7.10;99.90;;;;;;5030815;28;20295;-51
2022/01/17 13:45:13;;;;;;;;;;;7.20;99.90;;;;;;5031021;28;19925;-51
2022/01/17 13:47:41;;;;;;;;;;;6.90;99.90;;;;;;5030995;28;19948;-51
2022/01/17 13:50:09;;;;;;;;;;;6.60;99.90;;;;;;5030877;28;20020;-51
2022/01/17 13:52:35;;;;;;;;;;;6.70;99.90;;;;;;5031007;28;19964;-51
2022/01/17 13:55:24;;;;;;;;;;;6.50;99.90;;;;;;5030603;28;19986;-50
2022/01/17 13:57:56;;;;;;;;;;;6.50;99.90;;;;;;5030487;28;19995;-51
2022/01/17 14:00:23;;;;;;;;;;;6.60;99.90;;;;;;5030419;28;19978;-52
2022/01/17 14:02:51;;;;;;;;;;;6.60;99.90;;;;;;5030717;28;20398;-52
2022/01/17 14:05:29;;;;;;;;;;;6.60;99.90;;;;;;5030523;28;19941;-52
2022/01/17 14:08:09;;;;;;;;;;;6.60;99.90;;;;;;5029974;28;19995;-51
2022/01/17 14:10:47;;;;;;;;;;;6.70;99.90;;;;;;5030730;28;19931;-51
2022/01/17 14:13:13;;;;;;;;;;;6.80;99.90;;;;;;5034081;28;19978;-51
2022/01/17 14:15:40;;;;;;;;;;;6.80;99.90;;;;;;5034357;28;19971;-51
2022/01/17 14:18:11;;;;;;;;;;;6.60;99.90;;;;;;5033600;28;20350;-51
2022/01/17 14:20:39;;;;;;;;;;;6.40;99.90;;;;;;5033721;28;19971;-51
2022/01/17 14:23:07;;;;;;;;;;;6.40;99.90;;;;;;5032401;28;19939;-53
2022/01/17 14:25:36;;;;;;;;;;;6.40;99.90;;;;;;5033626;28;19925;-52
2022/01/17 14:28:05;;;;;;;;;;;6.40;99.90;;;;;;5033732;28;19933;-51
2022/01/17 14:30:33;;;;;;;;;;;6.30;99.90;;;;;;5033701;28;19925;-52
2022/01/17 14:33:12;;;;;;;;;;;6.30;99.90;;;;;;5032980;28;19933;-52
2022/01/17 14:35:39;;;;;;;;;;;6.40;99.90;;;;;;5023095;28;20359;-52
2022/01/17 14:38:05;;;;;;;;;;;6.30;99.90;;;;;;5033022;28;19983;-51
2022/01/17 14:40:32;;;;;;;;;;;6.30;99.90;;;;;;5033253;28;19971;-51
2022/01/17 14:43:12;;;;;;;;;;;6.40;99.90;;;;;;5071297;22;19924;-50
2022/01/17 14:45:40;;;;;;;;;;;6.30;99.90;;;;;;5074380;28;20391;-50
2022/01/17 14:48:14;;;;;;;;;;;6.30;99.90;;;;;;5081738;28;19959;-51
2022/01/17 14:50:41;;;;;;;;;;;6.10;99.90;;;;;;5084953;28;20449;-51
2022/01/17 14:53:16;;;;;;;;;;;6.00;99.90;;;;;;5074363;28;20356;-52
2022/01/17 15:01:21;;;;;;;;;;;5.70;99.90;;;;;;5069194;28;19931;-51
2022/01/17 15:03:52;;;;;;;;;;;5.70;99.90;;;;;;5078920;28;20033;-51
2022/01/17 15:06:19;;;;;;;;;;;5.80;99.90;;;;;;5086830;28;19924;-53
2022/01/17 15:08:48;;;;;;;;;;;5.60;99.90;;;;;;5077149;28;20450;-52